Time;durP1;ratioP1;P1;durP2;ratioP2;P2;SDS_P1;SDS_P2;PMS_P1;PMS_P2;Temp;Humidity;BMP_temperature;BMP_pressure;BME280_temperature;BME280_humidity;BME280_pressure;Samples;Min_cycle;Max_cycle;Signal;HPM_P1;HPM_P2
2023/04/19 00:00:38;;;;;;;;;;;;;;;16.73;57.39;102482.53;1272947;23;649;-70
2023/04/19 00:01:29;;;;;;;;;;;;;;;16.71;57.32;102484.44;1273249;23;1126;-71
2023/04/19 00:02:19;;;;;;;;;;;;;;;16.70;57.75;102482.72;1272264;23;653;-71
2023/04/19 00:03:10;;;;;;;;;;;;;;;16.69;57.81;102489.94;1272768;23;634;-70
2023/04/19 00:04:00;;;;;;;;;;;;;;;16.69;57.56;102481.84;1272988;23;649;-71
2023/04/19 00:04:51;;;;;;;;;;;;;;;16.70;57.66;102483.59;1274614;23;653;-71
2023/04/19 00:05:42;;;;;;;;;;;;;;;16.70;57.53;102483.59;1272101;23;677;-71
2023/04/19 00:06:33;;;;;;;;;;;;;;;16.69;57.92;102486.38;1272670;23;637;-70
2023/04/19 00:07:23;;;;;;;;;;;;;;;16.69;57.37;102484.53;1272253;23;649;-70
2023/04/19 00:08:14;;;;;;;;;;;;;;;16.68;57.29;102485.50;1272806;23;1917;-70
2023/04/19 00:09:04;;;;;;;;;;;;;;;16.70;57.46;102488.09;1274518;23;677;-70
2023/04/19 00:09:54;;;;;;;;;;;;;;;16.67;57.57;102481.94;1274477;23;617;-71
2023/04/19 00:10:45;;;;;;;;;;;;;;;16.69;57.45;102486.38;1272836;23;637;-70
2023/04/19 00:11:35;;;;;;;;;;;;;;;16.63;57.15;102488.53;1274527;23;783;-70
2023/04/19 00:12:26;;;;;;;;;;;;;;;16.62;57.45;102480.50;1272955;23;654;-70
2023/04/19 00:13:16;;;;;;;;;;;;;;;16.59;57.96;102472.63;1272371;23;662;-70
2023/04/19 00:14:07;;;;;;;;;;;;;;;16.60;57.73;102477.91;1272041;23;657;-70
2023/04/19 00:14:57;;;;;;;;;;;;;;;16.63;57.56;102480.44;1271830;23;697;-70
2023/04/19 00:15:48;;;;;;;;;;;;;;;16.65;57.45;102480.34;1273161;23;645;-70
2023/04/19 00:16:38;;;;;;;;;;;;;;;16.66;57.71;102482.03;1273673;23;657;-70
2023/04/19 00:17:28;;;;;;;;;;;;;;;16.68;58.06;102474.75;1272833;23;633;-71
2023/04/19 00:18:19;;;;;;;;;;;;;;;16.68;57.49;102480.13;1272783;23;622;-70
2023/04/19 00:19:10;;;;;;;;;;;;;;;16.69;57.60;102484.53;1272946;23;673;-70
2023/04/19 00:20:00;;;;;;;;;;;;;;;16.70;57.10;102482.72;1272930;23;653;-70
2023/04/19 00:20:51;;;;;;;;;;;;;;;16.69;57.66;102481.84;1274551;23;622;-70
2023/04/19 00:21:41;;;;;;;;;;;;;;;16.69;57.56;102484.53;1272796;23;716;-70
2023/04/19 00:22:31;;;;;;;;;;;;;;;16.68;57.34;102477.44;1274491;23;736;-70
2023/04/19 00:23:22;;;;;;;;;;;;;;;16.68;57.83;102480.13;1272857;23;613;-70
2023/04/19 00:24:12;;;;;;;;;;;;;;;16.69;57.21;102481.00;1272953;23;665;-70
2023/04/19 00:25:03;;;;;;;;;;;;;;;16.68;57.68;102480.13;1272651;23;677;-69
2023/04/19 00:25:53;;;;;;;;;;;;;;;16.66;57.89;102482.03;1272968;23;634;-69
2023/04/19 00:26:44;;;;;;;;;;;;;;;16.65;57.37;102485.72;1272737;23;634;-69
2023/04/19 00:27:34;;;;;;;;;;;;;;;16.66;57.59;102484.75;1272312;23;669;-70
2023/04/19 00:28:25;;;;;;;;;;;;;;;16.64;57.63;102478.63;1271879;23;838;-70
2023/04/19 00:29:15;;;;;;;;;;;;;;;16.64;57.51;102484.88;1274511;23;658;-70
2023/04/19 00:30:06;;;;;;;;;;;;;;;16.64;57.41;102484.00;1274556;23;661;-70
2023/04/19 00:30:56;;;;;;;;;;;;;;;16.66;57.58;102490.13;1272914;23;657;-70
2023/04/19 00:31:47;;;;;;;;;;;;;;;16.63;57.66;102479.56;1271543;23;634;-70
2023/04/19 00:32:37;;;;;;;;;;;;;;;16.63;57.49;102476.88;1267242;23;641;-70
2023/04/19 00:33:27;;;;;;;;;;;;;;;16.63;57.25;102482.28;1267129;23;627;-70
2023/04/19 00:34:18;;;;;;;;;;;;;;;16.62;57.69;102480.50;1271762;23;642;-70
2023/04/19 00:35:08;;;;;;;;;;;;;;;16.62;57.39;102481.38;1272812;23;606;-70
2023/04/19 00:35:59;;;;;;;;;;;;;;;16.62;57.85;102480.50;1272713;23;658;-71
2023/04/19 00:36:49;;;;;;;;;;;;;;;16.62;57.75;102480.50;1272972;23;630;-70
2023/04/19 00:37:40;;;;;;;;;;;;;;;16.61;57.79;102476.09;1272688;23;646;-71
2023/04/19 00:38:30;;;;;;;;;;;;;;;16.61;57.73;102476.94;1272887;23;682;-70
2023/04/19 00:39:20;;;;;;;;;;;;;;;16.62;57.32;102475.13;1274585;23;673;-71
2023/04/19 00:40:11;;;;;;;;;;;;;;;16.63;57.64;102476.88;1272732;23;622;-71
2023/04/19 00:41:01;;;;;;;;;;;;;;;16.63;57.35;102475.06;1272383;23;688;-71
2023/04/19 00:41:52;;;;;;;;;;;;;;;16.61;58.11;102471.56;1272239;23;627;-70
2023/04/19 00:42:42;;;;;;;;;;;;;;;16.62;57.46;102469.75;1272808;23;618;-71
2023/04/19 00:43:33;;;;;;;;;;;;;;;16.62;57.65;102469.75;1272785;23;653;-71
2023/04/19 00:44:23;;;;;;;;;;;;;;;16.61;57.69;102466.19;1272813;23;677;-70
2023/04/19 00:45:13;;;;;;;;;;;;;;;16.61;58.00;102468.00;1272670;23;626;-71
2023/04/19 00:46:04;;;;;;;;;;;;;;;16.60;58.05;102469.84;1272810;23;606;-71
2023/04/19 00:46:54;;;;;;;;;;;;;;;16.58;57.83;102458.31;1274575;23;695;-71
2023/04/19 00:47:45;;;;;;;;;;;;;;;16.57;57.85;102458.41;1272661;23;783;-71
2023/04/19 00:48:35;;;;;;;;;;;;;;;16.58;57.69;102461.00;1272893;23;728;-71
2023/04/19 00:49:26;;;;;;;;;;;;;;;16.59;58.05;102459.16;1274437;23;617;-71
2023/04/19 00:50:16;;;;;;;;;;;;;;;16.56;58.07;102452.16;1272851;23;626;-70
2023/04/19 00:51:09;;;;;;;;;;;;;;;16.53;57.87;102456.84;1272655;23;614;-70
2023/04/19 00:51:59;;;;;;;;;;;;;;;16.53;57.81;102465.78;1272163;23;661;-71
2023/04/19 00:52:50;;;;;;;;;;;;;;;16.55;58.05;102468.38;1274567;23;649;-71
2023/04/19 00:53:40;;;;;;;;;;;;;;;16.55;57.72;102463.00;1271976;23;622;-71
2023/04/19 00:54:30;;;;;;;;;;;;;;;16.55;57.41;102469.25;1272767;23;660;-71
2023/04/19 00:55:21;;;;;;;;;;;;;;;16.55;57.85;102469.25;1272601;23;602;-70
2023/04/19 00:56:11;;;;;;;;;;;;;;;16.53;57.89;102465.78;1272876;23;622;-70
2023/04/19 00:57:02;;;;;;;;;;;;;;;16.53;57.81;102459.56;1272783;23;614;-71
2023/04/19 00:57:52;;;;;;;;;;;;;;;16.52;58.02;102460.50;1274496;23;614;-70
2023/04/19 00:58:43;;;;;;;;;;;;;;;16.52;57.79;102461.38;1274569;23;622;-70
2023/04/19 00:59:34;;;;;;;;;;;;;;;16.53;58.18;102467.63;1271849;23;657;-70
2023/04/19 01:00:25;;;;;;;;;;;;;;;16.55;58.12;102463.00;1272780;23;666;-70
2023/04/19 01:01:15;;;;;;;;;;;;;;;16.54;57.65;102461.28;1271801;23;1055;-70
2023/04/19 01:02:06;;;;;;;;;;;;;;;16.54;57.96;102456.75;1272807;23;646;-70
2023/04/19 01:02:56;;;;;;;;;;;;;;;16.54;57.70;102467.53;1272875;23;661;-70
2023/04/19 01:03:47;;;;;;;;;;;;;;;16.53;57.85;102464.94;1272695;23;649;-70
2023/04/19 01:04:37;;;;;;;;;;;;;;;16.51;58.04;102461.47;1272758;23;681;-70
2023/04/19 01:05:28;;;;;;;;;;;;;;;16.51;57.55;102462.34;1272642;23;622;-70
2023/04/19 01:06:18;;;;;;;;;;;;;;;16.51;57.91;102461.47;1272788;23;650;-70
2023/04/19 01:07:08;;;;;;;;;;;;;;;16.51;58.18;102462.34;1272931;23;638;-70
2023/04/19 01:07:59;;;;;;;;;;;;;;;16.51;58.11;102459.66;1272569;23;1909;-70
2023/04/19 01:08:49;;;;;;;;;;;;;;;16.52;57.43;102455.13;1272824;23;641;-70
2023/04/19 01:09:40;;;;;;;;;;;;;;;16.52;57.74;102468.59;1274469;23;621;-70
2023/04/19 01:10:31;;;;;;;;;;;;;;;16.49;57.82;102458.00;1271794;23;594;-69
2023/04/19 01:11:21;;;;;;;;;;;;;;;16.48;57.90;102456.31;1272827;23;633;-70
2023/04/19 01:12:11;;;;;;;;;;;;;;;16.48;57.78;102456.31;1271678;23;645;-70
2023/04/19 01:13:02;;;;;;;;;;;;;;;16.48;58.27;102465.22;1271886;23;602;-70
2023/04/19 01:13:52;;;;;;;;;;;;;;;16.48;58.17;102456.31;1272857;23;673;-70
2023/04/19 01:14:43;;;;;;;;;;;;;;;16.45;58.10;102457.38;1272644;23;602;-70
2023/04/19 01:15:33;;;;;;;;;;;;;;;16.46;57.87;102463.63;1272820;23;698;-70
2023/04/19 01:16:24;;;;;;;;;;;;;;;16.45;57.95;102459.19;1272525;23;621;-70
2023/04/19 01:17:14;;;;;;;;;;;;;;;16.45;57.74;102457.38;1272857;23;692;-72
2023/04/19 01:18:05;;;;;;;;;;;;;;;16.45;57.93;102460.06;1274546;23;657;-70
2023/04/19 01:18:55;;;;;;;;;;;;;;;16.45;57.98;102456.50;1272290;23;692;-70
2023/04/19 01:19:46;;;;;;;;;;;;;;;16.47;57.62;102451.88;1272659;23;630;-70
2023/04/19 01:20:36;;;;;;;;;;;;;;;16.46;57.78;102452.84;1272831;23;622;-70
2023/04/19 01:21:29;;;;;;;;;;;;;;;16.46;57.86;102455.53;1274444;23;617;-69
2023/04/19 01:22:20;;;;;;;;;;;;;;;16.46;57.94;102458.22;1272983;23;657;-69
2023/04/19 01:23:11;;;;;;;;;;;;;;;16.44;57.86;102452.09;1272170;23;645;-70
2023/04/19 01:24:01;;;;;;;;;;;;;;;16.43;58.34;102450.34;1272119;23;626;-70
2023/04/19 01:24:52;;;;;;;;;;;;;;;16.41;57.88;102458.50;1274339;23;630;-70
2023/04/19 01:25:42;;;;;;;;;;;;;;;16.43;57.82;102453.91;1272154;23;652;-70
2023/04/19 01:26:32;;;;;;;;;;;;;;;16.43;57.96;102450.34;1274486;23;645;-70
2023/04/19 01:27:23;;;;;;;;;;;;;;;16.43;57.99;102453.91;1272747;23;654;-70
2023/04/19 01:28:13;;;;;;;;;;;;;;;16.42;58.31;102451.31;1272725;23;1896;-71
2023/04/19 01:29:04;;;;;;;;;;;;;;;16.42;58.02;102452.19;1271481;23;629;-70
2023/04/19 01:29:54;;;;;;;;;;;;;;;16.42;57.91;102451.31;1273372;23;657;-70
2023/04/19 01:30:45;;;;;;;;;;;;;;;16.42;57.90;102448.63;1273447;23;590;-71
2023/04/19 01:31:35;;;;;;;;;;;;;;;16.43;58.13;102453.03;1272743;23;633;-70
2023/04/19 01:32:26;;;;;;;;;;;;;;;16.42;58.08;102454.00;1274441;23;704;-70
2023/04/19 01:33:16;;;;;;;;;;;;;;;16.42;58.09;102456.69;1272778;23;622;-70
2023/04/19 01:34:06;;;;;;;;;;;;;;;16.41;58.26;102457.66;1272968;23;614;-70
2023/04/19 01:34:57;;;;;;;;;;;;;;;16.39;58.43;102446.13;1272657;23;622;-71
2023/04/19 01:35:47;;;;;;;;;;;;;;;16.38;58.09;102463.22;1272773;23;661;-70
2023/04/19 01:36:38;;;;;;;;;;;;;;;16.30;58.36;102456.50;1272641;23;653;-71
2023/04/19 01:37:28;;;;;;;;;;;;;;;16.26;58.42;102454.97;1272614;23;708;-72
2023/04/19 01:38:19;;;;;;;;;;;;;;;16.25;58.13;102453.25;1274503;23;622;-70
2023/04/19 01:39:09;;;;;;;;;;;;;;;16.27;58.60;102459.41;1271965;23;637;-70
2023/04/19 01:40:00;;;;;;;;;;;;;;;16.29;58.54;102459.31;1272116;23;605;-70
2023/04/19 01:40:51;;;;;;;;;;;;;;;16.30;58.00;102459.19;1271803;23;602;-72
2023/04/19 01:41:41;;;;;;;;;;;;;;;16.32;57.98;102453.72;1272716;23;697;-70
2023/04/19 01:42:31;;;;;;;;;;;;;;;16.35;58.13;102452.66;1272800;23;649;-70
2023/04/19 01:43:22;;;;;;;;;;;;;;;16.35;58.19;102458.03;1271446;23;642;-70
2023/04/19 01:44:12;;;;;;;;;;;;;;;16.30;58.15;102459.19;1273139;23;724;-70
2023/04/19 01:45:03;;;;;;;;;;;;;;;16.30;58.35;102458.34;1273561;23;653;-71
2023/04/19 01:45:53;;;;;;;;;;;;;;;16.30;58.50;102461.88;1272810;23;638;-70
2023/04/19 01:46:44;;;;;;;;;;;;;;;16.30;58.47;102461.03;1274347;23;618;-71
2023/04/19 01:47:34;;;;;;;;;;;;;;;16.29;58.18;102457.47;1271623;23;634;-72
2023/04/19 01:48:25;;;;;;;;;;;;;;;16.29;58.49;102460.19;1273145;23;1885;-71
2023/04/19 01:49:16;;;;;;;;;;;;;;;16.30;58.42;102459.19;1273200;23;751;-72
2023/04/19 01:50:06;;;;;;;;;;;;;;;16.28;58.34;102455.75;1274157;23;644;-72
2023/04/19 01:50:57;;;;;;;;;;;;;;;16.28;58.46;102454.88;1273745;23;644;-71
2023/04/19 01:51:47;;;;;;;;;;;;;;;16.28;58.51;102461.13;1271934;23;621;-72
2023/04/19 01:52:38;;;;;;;;;;;;;;;16.29;58.34;102456.63;1271165;23;626;-71
2023/04/19 01:53:29;;;;;;;;;;;;;;;16.28;58.42;102455.75;1267191;23;645;-71
2023/04/19 01:54:22;;;;;;;;;;;;;;;16.29;58.16;102456.63;1266400;23;685;-71
2023/04/19 01:55:13;;;;;;;;;;;;;;;16.28;58.77;102454.88;1274068;23;641;-71
2023/04/19 01:56:03;;;;;;;;;;;;;;;16.29;58.22;102457.47;1273511;23;688;-72
2023/04/19 01:56:54;;;;;;;;;;;;;;;16.28;58.29;102450.38;1271643;23;641;-73
2023/04/19 01:57:44;;;;;;;;;;;;;;;16.26;57.94;102460.38;1271831;23;601;-70
2023/04/19 01:58:35;;;;;;;;;;;;;;;16.27;58.03;102445.09;1272534;23;615;-70
2023/04/19 01:59:25;;;;;;;;;;;;;;;16.29;58.32;102452.09;1271863;23;641;-70
2023/04/19 02:00:16;;;;;;;;;;;;;;;16.31;58.70;102450.16;1272705;23;669;-71
2023/04/19 02:01:11;;;;;;;;;;;;;;;16.28;58.37;102457.56;1271543;23;1050;-70
2023/04/19 02:02:01;;;;;;;;;;;;;;;16.28;58.39;102452.19;1271920;23;650;-70
2023/04/19 02:02:52;;;;;;;;;;;;;;;16.23;58.39;102452.47;1272610;23;606;-70
2023/04/19 02:03:42;;;;;;;;;;;;;;;16.19;58.66;102452.75;1272706;23;626;-70
2023/04/19 02:04:33;;;;;;;;;;;;;;;16.19;58.56;102461.69;1272595;23;689;-70
2023/04/19 02:05:23;;;;;;;;;;;;;;;16.16;58.75;102461.88;1272660;23;641;-70
2023/04/19 02:06:13;;;;;;;;;;;;;;;16.11;58.59;102458.63;1272733;23;669;-70
2023/04/19 02:07:04;;;;;;;;;;;;;;;16.08;58.78;102449.91;1272738;23;615;-70
2023/04/19 02:07:54;;;;;;;;;;;;;;;16.11;58.79;102457.78;1272708;23;669;-69
2023/04/19 02:08:45;;;;;;;;;;;;;;;16.14;58.74;102458.41;1272492;23;637;-70
2023/04/19 02:09:35;;;;;;;;;;;;;;;16.14;58.23;102458.41;1272567;23;913;-71
2023/04/19 02:10:26;;;;;;;;;;;;;;;16.18;58.68;102459.09;1271746;23;661;-71
2023/04/19 02:11:16;;;;;;;;;;;;;;;16.18;58.94;102459.09;1272647;23;642;-70
2023/04/19 02:12:07;;;;;;;;;;;;;;;16.14;58.91;102455.72;1274258;23;602;-70
2023/04/19 02:12:57;;;;;;;;;;;;;;;16.09;58.79;102460.56;1272611;23;657;-71
2023/04/19 02:13:48;;;;;;;;;;;;;;;16.12;58.96;102454.97;1273361;23;633;-70
2023/04/19 02:14:38;;;;;;;;;;;;;;;16.12;58.90;102463.03;1272598;23;657;-72
2023/04/19 02:15:28;;;;;;;;;;;;;;;16.11;58.80;102452.41;1271925;23;642;-70
2023/04/19 02:16:19;;;;;;;;;;;;;;;16.13;58.79;102463.88;1274230;23;602;-71
2023/04/19 02:17:11;;;;;;;;;;;;;;;16.14;58.67;102457.56;1272855;23;646;-72
2023/04/19 02:18:01;;;;;;;;;;;;;;;16.10;58.59;102466.81;1271809;23;630;-72
2023/04/19 02:18:52;;;;;;;;;;;;;;;16.07;59.01;102462.47;1272003;23;610;-72
2023/04/19 02:19:42;;;;;;;;;;;;;;;16.10;58.74;102461.44;1271857;23;657;-72
2023/04/19 02:20:33;;;;;;;;;;;;;;;16.05;58.65;102453.63;1274509;23;614;-72
2023/04/19 02:21:23;;;;;;;;;;;;;;;16.00;59.30;102458.44;1271339;23;611;-72
2023/04/19 02:22:13;;;;;;;;;;;;;;;15.98;59.60;102454.97;1273200;23;645;-72
2023/04/19 02:23:04;;;;;;;;;;;;;;;15.95;59.40;102455.16;1273415;23;661;-72
2023/04/19 02:23:54;;;;;;;;;;;;;;;15.95;59.32;102452.47;1272639;23;646;-72
2023/04/19 02:24:46;;;;;;;;;;;;;;;15.93;59.69;102454.41;1274378;23;627;-72
2023/04/19 02:25:36;;;;;;;;;;;;;;;15.92;59.64;102450.84;1271996;23;995;-72
2023/04/19 02:26:27;;;;;;;;;;;;;;;15.91;59.73;102459.00;1272450;23;654;-71
2023/04/19 02:27:17;;;;;;;;;;;;;;;15.86;59.78;102456.59;1272688;23;622;-70
2023/04/19 02:28:08;;;;;;;;;;;;;;;15.89;59.51;102452.84;1274220;23;1926;-69
2023/04/19 02:28:58;;;;;;;;;;;;;;;15.88;59.56;102459.19;1272617;23;645;-71
2023/04/19 02:29:49;;;;;;;;;;;;;;;15.91;59.51;102456.31;1274419;23;610;-69
2023/04/19 02:30:39;;;;;;;;;;;;;;;15.89;59.50;102453.72;1272591;23;658;-70
2023/04/19 02:31:29;;;;;;;;;;;;;;;15.89;59.79;102458.22;1272576;23;684;-70
2023/04/19 02:32:20;;;;;;;;;;;;;;;15.90;59.76;102459.97;1272505;23;611;-70
2023/04/19 02:33:11;;;;;;;;;;;;;;;15.90;59.47;102457.28;1272635;23;610;-70
2023/04/19 02:34:01;;;;;;;;;;;;;;;15.94;59.43;102461.50;1271967;23;634;-71
2023/04/19 02:34:52;;;;;;;;;;;;;;;15.93;59.94;102457.97;1271634;23;967;-70
2023/04/19 02:35:42;;;;;;;;;;;;;;;15.89;59.69;102452.84;1271522;23;626;-70
2023/04/19 02:36:32;;;;;;;;;;;;;;;15.91;59.50;102459.88;1273027;23;626;-71
2023/04/19 02:37:23;;;;;;;;;;;;;;;15.90;59.69;102459.97;1273406;23;610;-70
2023/04/19 02:38:14;;;;;;;;;;;;;;;15.91;59.34;102461.69;1271999;23;689;-70
2023/04/19 02:39:04;;;;;;;;;;;;;;;15.92;59.66;102458.06;1272105;23;632;-71
2023/04/19 02:39:54;;;;;;;;;;;;;;;15.90;59.62;102462.66;1272596;23;629;-71
2023/04/19 02:40:45;;;;;;;;;;;;;;;15.89;59.64;102460.94;1272446;23;658;-71
2023/04/19 02:41:35;;;;;;;;;;;;;;;15.88;59.76;102460.06;1272498;23;669;-71
2023/04/19 02:42:26;;;;;;;;;;;;;;;15.89;59.85;102460.94;1272521;23;607;-71
2023/04/19 02:43:16;;;;;;;;;;;;;;;15.86;59.76;102463.78;1272465;23;798;-71
2023/04/19 02:44:07;;;;;;;;;;;;;;;15.84;59.87;102463.03;1273491;23;673;-71
2023/04/19 02:44:57;;;;;;;;;;;;;;;15.85;59.57;102462.94;1271775;23;665;-71
2023/04/19 02:45:48;;;;;;;;;;;;;;;15.86;59.67;102467.34;1272480;23;594;-71
2023/04/19 02:46:38;;;;;;;;;;;;;;;15.85;59.90;102462.06;1272538;23;637;-71
2023/04/19 02:47:29;;;;;;;;;;;;;;;15.88;59.43;102468.13;1272448;23;669;-70
2023/04/19 02:48:19;;;;;;;;;;;;;;;15.86;59.76;102464.66;1272535;23;1888;-70
2023/04/19 02:49:10;;;;;;;;;;;;;;;15.84;59.81;102460.34;1272275;23;646;-73
2023/04/19 02:50:00;;;;;;;;;;;;;;;15.89;59.65;102463.63;1271861;23;673;-71
2023/04/19 02:50:51;;;;;;;;;;;;;;;15.85;59.61;102464.75;1272768;23;657;-71
2023/04/19 02:51:41;;;;;;;;;;;;;;;15.82;59.66;102462.25;1272605;23;623;-72
2023/04/19 02:52:31;;;;;;;;;;;;;;;15.83;59.78;102469.34;1271298;23;653;-70
2023/04/19 02:53:22;;;;;;;;;;;;;;;15.81;60.18;102471.25;1272401;23;624;-72
2023/04/19 02:54:12;;;;;;;;;;;;;;;15.82;60.03;102473.88;1272526;23;688;-70
2023/04/19 02:55:03;;;;;;;;;;;;;;;15.83;60.12;102474.72;1273394;23;665;-70
2023/04/19 02:55:53;;;;;;;;;;;;;;;15.79;60.10;102468.66;1272742;23;646;-70
2023/04/19 02:56:44;;;;;;;;;;;;;;;15.83;59.72;102474.72;1274325;23;602;-72
2023/04/19 02:57:34;;;;;;;;;;;;;;;15.86;59.71;102475.41;1272619;23;697;-71
2023/04/19 02:58:25;;;;;;;;;;;;;;;15.86;59.37;102467.34;1274254;23;630;-71
2023/04/19 02:59:15;;;;;;;;;;;;;;;15.85;59.73;102475.50;1272517;23;947;-71
2023/04/19 03:00:07;;;;;;;;;;;;;;;15.85;59.85;102473.69;1274379;23;734;-71
2023/04/19 03:00:58;;;;;;;;;;;;;;;15.86;59.64;102471.84;1272430;23;641;-71
2023/04/19 03:01:48;;;;;;;;;;;;;;;15.86;59.89;102472.72;1272483;23;657;-71
2023/04/19 03:02:39;;;;;;;;;;;;;;;15.86;59.66;102475.41;1272656;23;622;-71
2023/04/19 03:03:29;;;;;;;;;;;;;;;15.84;59.88;102471.94;1272573;23;814;-71
2023/04/19 03:04:20;;;;;;;;;;;;;;;15.85;59.69;102467.44;1272670;23;611;-71
2023/04/19 03:05:11;;;;;;;;;;;;;;;15.88;59.55;102464.56;1271706;23;621;-71
2023/04/19 03:06:01;;;;;;;;;;;;;;;15.90;59.75;102470.72;1272658;23;638;-71
2023/04/19 03:06:52;;;;;;;;;;;;;;;15.92;59.49;102471.50;1271952;23;641;-72
2023/04/19 03:07:42;;;;;;;;;;;;;;;15.91;59.43;102467.06;1272571;23;609;-71
2023/04/19 03:08:33;;;;;;;;;;;;;;;15.88;59.44;102473.50;1273462;23;691;-71
2023/04/19 03:09:23;;;;;;;;;;;;;;;15.90;59.46;102473.41;1272581;23;641;-71
2023/04/19 03:10:14;;;;;;;;;;;;;;;15.87;59.61;102466.38;1272622;23;618;-71
2023/04/19 03:11:04;;;;;;;;;;;;;;;15.88;59.52;102472.63;1272596;23;692;-71
2023/04/19 03:11:55;;;;;;;;;;;;;;;15.89;59.30;102474.38;1272731;23;621;-71
2023/04/19 03:12:45;;;;;;;;;;;;;;;15.92;59.49;102474.19;1272576;23;641;-72
2023/04/19 03:13:36;;;;;;;;;;;;;;;15.93;59.30;102481.28;1272476;23;649;-72
2023/04/19 03:14:26;;;;;;;;;;;;;;;15.94;59.34;102469.56;1272495;23;653;-71
2023/04/19 03:15:16;;;;;;;;;;;;;;;15.91;59.41;102467.06;1272439;23;626;-71
2023/04/19 03:16:07;;;;;;;;;;;;;;;15.91;59.19;102470.63;1274340;23;669;-72
2023/04/19 03:16:57;;;;;;;;;;;;;;;15.94;59.04;102469.56;1272475;23;634;-72
2023/04/19 03:17:48;;;;;;;;;;;;;;;15.94;59.39;102466.88;1272017;23;657;-72
2023/04/19 03:18:38;;;;;;;;;;;;;;;15.92;59.57;102468.81;1272494;23;606;-71
2023/04/19 03:19:32;;;;;;;;;;;;;;;15.86;59.46;102463.78;1272765;23;646;-73
2023/04/19 03:20:22;;;;;;;;;;;;;;;15.82;59.68;102467.63;1272523;23;658;-71
2023/04/19 03:21:12;;;;;;;;;;;;;;;15.82;59.54;102467.63;1272517;23;614;-71
2023/04/19 03:22:03;;;;;;;;;;;;;;;15.85;59.17;102467.44;1272455;23;590;-71
2023/04/19 03:22:53;;;;;;;;;;;;;;;15.87;59.52;102468.22;1272633;23;697;-71
2023/04/19 03:23:44;;;;;;;;;;;;;;;15.85;59.62;102468.31;1274340;23;637;-71
2023/04/19 03:24:35;;;;;;;;;;;;;;;15.86;59.38;102463.78;1271931;23;625;-71
2023/04/19 03:25:25;;;;;;;;;;;;;;;15.86;59.45;102463.78;1272415;23;638;-71
2023/04/19 03:26:15;;;;;;;;;;;;;;;15.84;59.59;102466.56;1272475;23;622;-70
2023/04/19 03:27:06;;;;;;;;;;;;;;;15.83;59.43;102463.97;1272595;23;649;-71
2023/04/19 03:27:56;;;;;;;;;;;;;;;15.85;59.53;102462.94;1272580;23;649;-71
2023/04/19 03:28:47;;;;;;;;;;;;;;;15.86;59.64;102458.41;1272449;23;623;-71
2023/04/19 03:29:37;;;;;;;;;;;;;;;15.90;59.10;102457.28;1272438;23;673;-71
2023/04/19 03:30:28;;;;;;;;;;;;;;;15.95;59.26;102465.91;1274333;23;601;-71
2023/04/19 03:31:18;;;;;;;;;;;;;;;15.95;59.03;102464.06;1272519;23;625;-72
2023/04/19 03:32:09;;;;;;;;;;;;;;;15.94;59.11;102469.56;1272715;23;637;-72
2023/04/19 03:32:59;;;;;;;;;;;;;;;15.93;59.30;102466.03;1272405;23;618;-72
2023/04/19 03:33:50;;;;;;;;;;;;;;;15.88;59.66;102465.44;1272465;23;688;-72
2023/04/19 03:34:40;;;;;;;;;;;;;;;15.89;59.38;102460.94;1272568;23;654;-72
2023/04/19 03:35:31;;;;;;;;;;;;;;;15.86;59.29;102458.41;1272546;23;681;-71
2023/04/19 03:36:21;;;;;;;;;;;;;;;15.85;59.32;102462.06;1271775;23;664;-71
2023/04/19 03:37:12;;;;;;;;;;;;;;;15.86;59.43;102458.41;1271710;23;724;-71
2023/04/19 03:38:02;;;;;;;;;;;;;;;15.85;59.70;102459.38;1272571;23;645;-71
2023/04/19 03:38:53;;;;;;;;;;;;;;;15.85;59.40;102457.56;1271209;23;614;-70
2023/04/19 03:39:43;;;;;;;;;;;;;;;15.89;59.29;102453.72;1273035;23;658;-71
2023/04/19 03:40:34;;;;;;;;;;;;;;;15.88;59.12;102453.81;1273409;23;688;-71
2023/04/19 03:41:24;;;;;;;;;;;;;;;15.85;59.27;102457.56;1272434;23;680;-71
2023/04/19 03:42:15;;;;;;;;;;;;;;;15.89;59.14;102452.84;1271875;23;649;-71
2023/04/19 03:43:05;;;;;;;;;;;;;;;15.87;59.19;102452.09;1271739;23;621;-71
2023/04/19 03:43:57;;;;;;;;;;;;;;;15.88;59.34;102456.50;1272532;23;669;-71
2023/04/19 03:44:47;;;;;;;;;;;;;;;15.91;59.22;102461.69;1271713;23;637;-71
2023/04/19 03:45:37;;;;;;;;;;;;;;;15.91;58.96;102456.31;1272500;23;618;-71
2023/04/19 03:46:31;;;;;;;;;;;;;;;15.87;59.41;102457.47;1272395;23;677;-71
2023/04/19 03:47:21;;;;;;;;;;;;;;;15.88;59.11;102464.56;1272510;23;653;-71
2023/04/19 03:48:12;;;;;;;;;;;;;;;15.90;59.17;102454.59;1274181;23;1892;-71
2023/04/19 03:49:02;;;;;;;;;;;;;;;15.88;59.27;102457.38;1272534;23;646;-71
2023/04/19 03:49:53;;;;;;;;;;;;;;;15.92;59.08;102460.75;1274187;23;656;-71
2023/04/19 03:50:43;;;;;;;;;;;;;;;15.92;59.01;102458.91;1271904;23;661;-71
2023/04/19 03:51:33;;;;;;;;;;;;;;;15.92;59.31;102455.34;1272536;23;646;-71
2023/04/19 03:52:24;;;;;;;;;;;;;;;15.90;59.17;102459.97;1274465;23;625;-71
2023/04/19 03:53:15;;;;;;;;;;;;;;;15.89;59.09;102458.22;1271585;23;653;-71
2023/04/19 03:54:05;;;;;;;;;;;;;;;15.90;58.97;102454.59;1272540;23;637;-71
2023/04/19 03:54:56;;;;;;;;;;;;;;;15.91;58.88;102457.19;1272595;23;658;-71
2023/04/19 03:55:46;;;;;;;;;;;;;;;15.91;59.12;102453.63;1272438;23;618;-71
2023/04/19 03:56:37;;;;;;;;;;;;;;;15.91;59.21;102456.31;1273227;23;665;-71
2023/04/19 03:57:27;;;;;;;;;;;;;;;15.88;59.04;102461.88;1272501;23;622;-71
2023/04/19 03:58:17;;;;;;;;;;;;;;;15.87;59.26;102461.00;1272452;23;646;-71
2023/04/19 03:59:08;;;;;;;;;;;;;;;15.85;59.33;102462.06;1272484;23;610;-71
2023/04/19 03:59:58;;;;;;;;;;;;;;;15.84;59.19;102457.63;1272535;23;614;-71
2023/04/19 04:00:49;;;;;;;;;;;;;;;15.80;59.22;102453.41;1271450;23;666;-71
2023/04/19 04:01:40;;;;;;;;;;;;;;;15.78;59.13;102455.31;1272994;23;677;-71
2023/04/19 04:02:31;;;;;;;;;;;;;;;15.80;59.23;102464.16;1273212;23;668;-71
2023/04/19 04:03:21;;;;;;;;;;;;;;;15.84;59.02;102463.88;1272529;23;618;-71
2023/04/19 04:04:12;;;;;;;;;;;;;;;15.85;58.84;102464.75;1272624;23;662;-71
2023/04/19 04:05:02;;;;;;;;;;;;;;;15.85;59.28;102460.25;1270671;23;618;-71
2023/04/19 04:05:52;;;;;;;;;;;;;;;15.82;59.32;102462.25;1273030;23;637;-71
2023/04/19 04:06:43;;;;;;;;;;;;;;;15.78;59.35;102456.19;1273298;23;661;-71
2023/04/19 04:07:33;;;;;;;;;;;;;;;15.77;59.29;102464.34;1272577;23;693;-71
2023/04/19 04:08:24;;;;;;;;;;;;;;;15.76;59.76;102462.63;1274240;23;1944;-71
2023/04/19 04:09:14;;;;;;;;;;;;;;;15.77;59.36;102464.34;1271376;23;701;-71
2023/04/19 04:10:05;;;;;;;;;;;;;;;15.75;59.29;102455.53;1273000;23;703;-71
2023/04/19 04:10:55;;;;;;;;;;;;;;;15.78;59.32;102455.31;1273352;23;613;-71
2023/04/19 04:11:46;;;;;;;;;;;;;;;15.80;59.17;102453.41;1272534;23;634;-71
2023/04/19 04:12:36;;;;;;;;;;;;;;;15.79;59.17;102457.06;1271669;23;610;-71
2023/04/19 04:13:27;;;;;;;;;;;;;;;15.81;59.38;102456.00;1273969;23;622;-71
2023/04/19 04:14:17;;;;;;;;;;;;;;;15.82;59.13;102462.25;1272432;23;598;-71
2023/04/19 04:15:07;;;;;;;;;;;;;;;15.79;59.20;102457.91;1271819;23;645;-71
2023/04/19 04:15:58;;;;;;;;;;;;;;;15.80;59.24;102465.03;1274430;23;650;-71
2023/04/19 04:16:48;;;;;;;;;;;;;;;15.82;59.12;102463.09;1272912;23;602;-71
2023/04/19 04:17:39;;;;;;;;;;;;;;;15.86;58.97;102459.28;1274641;23;581;-71
2023/04/19 04:18:29;;;;;;;;;;;;;;;15.86;58.93;102461.09;1272762;23;646;-71
2023/04/19 04:19:20;;;;;;;;;;;;;;;15.86;59.15;102458.41;1272306;23;638;-71
2023/04/19 04:20:12;;;;;;;;;;;;;;;15.85;59.13;102459.38;1271833;23;654;-71
2023/04/19 04:21:02;;;;;;;;;;;;;;;15.84;58.98;102454.94;1272150;23;669;-71
2023/04/19 04:21:53;;;;;;;;;;;;;;;15.85;58.86;102459.38;1274584;23;701;-71
2023/04/19 04:22:45;;;;;;;;;;;;;;;15.83;59.22;102458.59;1272828;23;661;-71
2023/04/19 04:23:36;;;;;;;;;;;;;;;15.85;59.01;102464.75;1272168;23;656;-71
2023/04/19 04:24:27;;;;;;;;;;;;;;;15.87;58.90;102454.78;1272262;23;692;-71
2023/04/19 04:25:17;;;;;;;;;;;;;;;15.88;58.44;102459.19;1272926;23;649;-71
2023/04/19 04:26:08;;;;;;;;;;;;;;;15.86;59.02;102461.97;1272930;23;630;-72
2023/04/19 04:26:59;;;;;;;;;;;;;;;15.85;58.86;102464.75;1272879;23;610;-71